createdAt,value
2023-01-03T00:02:24.306Z,19.27
2023-01-03T00:05:11.238Z,15.03
2023-01-03T00:07:58.249Z,14.73
2023-01-03T00:10:45.198Z,19.80
2023-01-03T00:13:32.114Z,17.07
2023-01-03T00:16:20.116Z,16.53
2023-01-03T00:19:08.477Z,11.97
2023-01-03T00:21:56.002Z,15.70
2023-01-03T00:24:48.069Z,20.17
2023-01-03T00:27:35.155Z,13.57
2023-01-03T00:30:22.459Z,15.13
2023-01-03T00:33:09.458Z,17.63
2023-01-03T00:35:56.354Z,16.13
2023-01-03T00:38:43.451Z,17.37
2023-01-03T00:41:30.674Z,17.80
2023-01-03T00:44:18.089Z,16.57
2023-01-03T00:47:05.360Z,16.07
2023-01-03T00:49:52.308Z,17.10
2023-01-03T00:52:39.221Z,14.13
2023-01-03T00:55:26.182Z,19.87
2023-01-03T00:58:13.209Z,14.53
2023-01-03T01:01:08.423Z,13.70
2023-01-03T01:03:59.778Z,15.37
2023-01-03T01:06:50.293Z,18.07
2023-01-03T01:09:37.704Z,14.43
2023-01-03T01:12:24.694Z,16.77
2023-01-03T01:15:12.311Z,21.27
2023-01-03T01:17:59.287Z,18.63
2023-01-03T01:20:46.222Z,23.50
2023-01-03T01:23:35.662Z,20.00
2023-01-03T01:26:24.642Z,20.37
2023-01-03T01:29:12.993Z,14.83
2023-01-03T01:32:00.009Z,19.40
2023-01-03T01:34:46.934Z,17.17
2023-01-03T01:37:33.884Z,19.17
2023-01-03T01:40:20.843Z,17.23
2023-01-03T01:43:40.030Z,19.47
2023-01-03T01:46:32.953Z,15.57
2023-01-03T01:49:25.950Z,18.53
2023-01-03T01:52:15.148Z,13.37
2023-01-03T01:55:08.400Z,17.20
2023-01-03T01:57:55.434Z,16.67
2023-01-03T02:00:43.917Z,13.73
2023-01-03T02:03:30.924Z,14.80
2023-01-03T02:06:18.990Z,13.70
2023-01-03T02:09:05.965Z,13.13
2023-01-03T02:12:22.623Z,14.93
2023-01-03T02:15:29.265Z,15.70
2023-01-03T02:18:49.962Z,16.80
2023-01-03T02:21:54.779Z,15.90
2023-01-03T02:25:24.267Z,10.07
2023-01-03T02:28:36.127Z,15.20
2023-01-03T02:31:38.423Z,14.00
2023-01-03T02:34:43.974Z,14.90
2023-01-03T02:37:35.695Z,16.93
2023-01-03T02:40:25.818Z,17.20
2023-01-03T02:43:42.898Z,20.83
2023-01-03T02:46:49.277Z,21.97
2023-01-03T02:50:01.307Z,20.13
2023-01-03T02:52:52.116Z,17.80
2023-01-03T02:55:39.473Z,16.10
2023-01-03T02:58:32.045Z,19.23
2023-01-03T03:01:20.841Z,20.13
2023-01-03T03:04:08.300Z,22.47
2023-01-03T03:07:07.932Z,25.07
2023-01-03T03:10:16.857Z,22.93
2023-01-03T03:13:45.379Z,27.40
2023-01-03T03:16:47.424Z,29.50
2023-01-03T03:19:58.731Z,27.30
2023-01-03T03:23:14.980Z,36.80
2023-01-03T03:26:11.261Z,31.20
2023-01-03T03:29:04.982Z,34.73
2023-01-03T03:31:53.503Z,32.27
2023-01-03T03:34:42.700Z,31.90
2023-01-03T03:37:30.085Z,36.00
2023-01-03T03:40:35.834Z,28.30
2023-01-03T03:43:56.128Z,36.20
2023-01-03T03:46:54.971Z,34.27
2023-01-03T03:49:48.396Z,40.17
2023-01-03T03:52:36.636Z,36.30
2023-01-03T03:55:39.760Z,38.80
2023-01-03T03:58:34.645Z,33.07
2023-01-03T04:01:24.187Z,31.57
2023-01-03T04:04:17.916Z,32.20
2023-01-03T04:07:05.076Z,33.37
2023-01-03T04:09:52.138Z,28.57
2023-01-03T04:12:39.252Z,28.77
2023-01-03T04:15:26.178Z,32.90
2023-01-03T04:18:13.147Z,32.17
2023-01-03T04:21:00.329Z,29.50
2023-01-03T04:23:47.291Z,33.17
2023-01-03T04:26:34.318Z,32.70
2023-01-03T04:29:21.264Z,30.20
2023-01-03T04:32:10.066Z,34.23
2023-01-03T04:34:57.147Z,29.80
2023-01-03T04:37:44.139Z,34.93
2023-01-03T04:40:31.525Z,40.10
2023-01-03T04:43:36.886Z,36.67
2023-01-03T04:46:25.327Z,36.37
2023-01-03T04:49:12.380Z,38.27
2023-01-03T04:51:59.305Z,42.20
2023-01-03T04:54:46.315Z,38.77
2023-01-03T04:57:33.267Z,41.97
2023-01-03T05:00:20.344Z,37.20
2023-01-03T05:03:07.306Z,35.90
2023-01-03T05:05:58.777Z,37.53
2023-01-03T05:08:48.591Z,38.00
2023-01-03T05:11:35.603Z,29.40
2023-01-03T05:14:22.551Z,30.30
2023-01-03T05:17:09.838Z,37.03
2023-01-03T05:20:14.978Z,30.63
2023-01-03T05:23:20.815Z,35.17
2023-01-03T05:26:11.715Z,37.07
2023-01-03T05:28:58.883Z,31.37
2023-01-03T05:31:46.523Z,35.90
2023-01-03T05:34:33.571Z,37.10
2023-01-03T05:37:20.950Z,37.10
2023-01-03T05:40:08.761Z,37.83
2023-01-03T05:42:55.683Z,40.03
2023-01-03T05:45:42.730Z,35.67
2023-01-03T05:48:29.777Z,41.10
2023-01-03T05:51:16.696Z,39.47
2023-01-03T05:54:03.792Z,40.17
2023-01-03T05:56:51.464Z,41.43
2023-01-03T05:59:38.459Z,39.67
2023-01-03T06:02:25.407Z,48.00
2023-01-03T06:05:12.579Z,40.87
2023-01-03T06:08:01.700Z,39.13
2023-01-03T06:10:48.687Z,40.10
2023-01-03T06:13:36.075Z,44.47
2023-01-03T06:16:41.721Z,42.57
2023-01-03T06:19:28.764Z,41.37
2023-01-03T06:22:15.793Z,48.67
2023-01-03T06:25:02.952Z,43.33
2023-01-03T06:27:49.921Z,46.30
2023-01-03T06:30:36.887Z,45.83
2023-01-03T06:33:23.813Z,47.57
2023-01-03T06:36:12.963Z,59.30
2023-01-03T06:39:00.783Z,51.23
2023-01-03T06:41:47.788Z,63.93
2023-01-03T06:44:34.753Z,72.00
2023-01-03T06:47:40.317Z,66.13
2023-01-03T06:50:45.977Z,68.80
2023-01-03T06:53:37.116Z,67.87
2023-01-03T06:56:25.965Z,78.30
2023-01-03T06:59:12.894Z,77.00
2023-01-03T07:01:59.964Z,77.90
2023-01-03T07:04:47.152Z,78.80
2023-01-03T07:07:34.142Z,85.43
2023-01-03T07:10:21.153Z,90.70
2023-01-03T07:13:26.663Z,81.80
2023-01-03T07:16:18.800Z,88.90
2023-01-03T07:19:07.603Z,87.63
2023-01-03T07:21:54.540Z,84.27
2023-01-03T07:24:41.493Z,83.37
2023-01-03T07:27:28.465Z,91.57
2023-01-03T07:30:15.471Z,85.27
2023-01-03T07:33:02.418Z,86.93
2023-01-03T07:35:49.324Z,88.70
2023-01-03T07:38:37.635Z,80.27
2023-01-03T07:41:44.586Z,82.83
2023-01-03T07:44:31.522Z,82.83
2023-01-03T07:47:18.474Z,84.57
2023-01-03T07:50:05.647Z,86.50
2023-01-03T07:52:52.551Z,84.60
2023-01-03T07:55:39.516Z,87.73
2023-01-03T07:58:26.428Z,89.43
2023-01-03T08:01:16.259Z,94.73
2023-01-03T08:04:03.304Z,99.17
2023-01-03T08:06:50.294Z,91.40
2023-01-03T08:09:56.201Z,90.03
2023-01-03T08:13:01.572Z,96.50
2023-01-03T08:15:55.159Z,90.10
2023-01-03T08:18:42.867Z,90.37
2023-01-03T08:21:29.789Z,99.27
2023-01-03T08:24:16.808Z,109.57
2023-01-03T08:27:05.023Z,115.63
2023-01-03T08:29:51.975Z,101.67
2023-01-03T08:32:39.041Z,101.60
2023-01-03T08:35:28.661Z,114.10
2023-01-03T08:38:20.826Z,105.70
2023-01-03T08:41:10.839Z,95.87
2023-01-03T08:44:02.753Z,102.47
2023-01-03T08:46:52.561Z,106.10
2023-01-03T08:49:39.941Z,105.50
2023-01-03T08:52:31.591Z,115.77
2023-01-03T08:55:21.726Z,102.77
2023-01-03T08:58:11.488Z,102.33
2023-01-03T09:01:06.275Z,97.50
2023-01-03T09:03:53.677Z,99.97
2023-01-03T09:06:40.798Z,90.97
2023-01-03T09:09:27.768Z,107.37
2023-01-03T09:12:14.669Z,97.27
2023-01-03T09:15:01.801Z,96.73
2023-01-03T09:17:49.512Z,99.97
2023-01-03T09:20:36.481Z,90.73
2023-01-03T09:23:23.475Z,97.20
2023-01-03T09:26:10.398Z,94.60
2023-01-03T09:28:57.460Z,90.27
2023-01-03T09:31:45.860Z,92.47
2023-01-03T09:34:33.166Z,88.90
2023-01-03T09:37:20.117Z,88.30
2023-01-03T09:40:07.366Z,81.47
2023-01-03T09:43:13.873Z,83.87
2023-01-03T09:46:02.105Z,84.93
2023-01-03T09:48:50.634Z,75.83
2023-01-03T09:52:03.815Z,71.53
2023-01-03T09:55:09.512Z,68.47
2023-01-03T09:58:19.724Z,69.23
2023-01-03T10:01:49.915Z,67.03
2023-01-03T10:05:13.903Z,59.80
2023-01-03T10:08:23.100Z,56.90
2023-01-03T10:11:21.754Z,52.07
2023-01-03T10:14:28.163Z,55.93
2023-01-03T10:17:22.912Z,48.17
2023-01-03T10:20:28.063Z,50.83
2023-01-03T10:23:20.136Z,46.13
2023-01-03T10:26:12.226Z,44.23
2023-01-03T10:28:59.807Z,45.13
2023-01-03T10:32:11.481Z,41.10
2023-01-03T10:35:23.472Z,33.47
2023-01-03T10:38:10.411Z,34.67
2023-01-03T10:41:00.165Z,34.53
2023-01-03T10:44:00.847Z,36.77
2023-01-03T10:46:53.749Z,33.97
2023-01-03T10:49:45.072Z,38.33
2023-01-03T10:52:39.429Z,31.43
2023-01-03T10:55:27.911Z,29.27
2023-01-03T10:58:29.270Z,32.43
2023-01-03T11:01:25.178Z,27.73
2023-01-03T11:04:18.295Z,26.23
2023-01-03T11:07:08.154Z,29.27
2023-01-03T11:09:57.754Z,26.67
2023-01-03T11:12:46.902Z,25.93
2023-01-03T11:15:39.634Z,24.83
2023-01-03T11:18:28.308Z,26.10
2023-01-03T11:21:56.448Z,22.00
2023-01-03T11:25:12.932Z,22.87
2023-01-03T11:28:16.511Z,20.90
2023-01-03T11:31:06.942Z,21.63
2023-01-03T11:34:05.948Z,19.03
2023-01-03T11:36:57.261Z,17.47
2023-01-03T11:39:52.342Z,18.43
2023-01-03T11:43:08.772Z,16.03
2023-01-03T11:46:01.820Z,16.73
2023-01-03T11:49:04.405Z,16.87
2023-01-03T11:52:10.039Z,14.37
2023-01-03T11:54:57.003Z,17.33
2023-01-03T11:57:59.007Z,15.07
2023-01-03T12:01:15.035Z,14.27
2023-01-03T12:04:24.671Z,17.63
2023-01-03T12:07:46.943Z,18.13
2023-01-03T12:10:43.622Z,13.03
2023-01-03T12:13:46.138Z,11.87
2023-01-03T12:16:45.353Z,12.43
2023-01-03T12:19:39.040Z,12.67
2023-01-03T12:22:43.214Z,14.50
2023-01-03T12:25:38.054Z,15.83
2023-01-03T12:29:03.531Z,10.50
2023-01-03T12:32:21.235Z,8.43
2023-01-03T12:35:26.415Z,10.70
2023-01-03T12:38:13.695Z,11.07
2023-01-03T12:41:22.443Z,7.07
2023-01-03T12:44:29.255Z,10.67
2023-01-03T12:47:32.441Z,8.37
2023-01-03T12:50:36.145Z,10.50
2023-01-03T12:53:30.890Z,10.53
2023-01-03T12:56:23.751Z,8.33
2023-01-03T12:59:36.990Z,13.43
2023-01-03T13:02:39.150Z,8.33
2023-01-03T13:05:35.172Z,8.43
2023-01-03T13:08:44.229Z,6.47
2023-01-03T13:11:37.380Z,7.87
2023-01-03T13:14:27.343Z,6.37
2023-01-03T13:17:18.122Z,8.60
2023-01-03T13:20:32.789Z,9.90
2023-01-03T13:23:47.394Z,8.07
2023-01-03T13:26:34.396Z,8.47
2023-01-03T13:29:33.534Z,9.87
2023-01-03T13:32:20.443Z,6.97
2023-01-03T13:35:16.383Z,7.67
2023-01-03T13:38:26.147Z,8.53
2023-01-03T13:41:39.814Z,7.50
2023-01-03T13:44:26.811Z,14.00
2023-01-03T13:47:33.408Z,6.40
2023-01-03T13:51:04.427Z,11.90
2023-01-03T13:54:24.016Z,4.73
2023-01-03T13:57:37.674Z,8.33
2023-01-03T14:00:24.886Z,5.37
2023-01-03T14:03:49.622Z,5.10
2023-01-03T14:07:14.131Z,7.00
2023-01-03T14:10:48.735Z,6.37
2023-01-03T14:13:47.185Z,5.93
2023-01-03T14:16:45.679Z,7.27
2023-01-03T14:19:40.519Z,12.00
2023-01-03T14:22:41.045Z,8.33
2023-01-03T14:25:43.226Z,7.17
2023-01-03T14:28:33.149Z,7.43
2023-01-03T14:31:27.661Z,9.50
2023-01-03T14:34:25.256Z,5.90
2023-01-03T14:37:17.917Z,7.23
2023-01-03T14:40:06.998Z,8.23
2023-01-03T14:42:54.745Z,9.33
2023-01-03T14:45:41.747Z,10.97
2023-01-03T14:48:29.029Z,6.00
2023-01-03T14:51:18.554Z,7.27
2023-01-03T14:54:06.406Z,7.30
2023-01-03T14:56:55.530Z,10.33
2023-01-03T14:59:42.672Z,9.47
2023-01-03T15:02:35.956Z,8.10
2023-01-03T15:05:43.794Z,6.97
2023-01-03T15:08:32.245Z,6.87
2023-01-03T15:11:57.480Z,8.70
2023-01-03T15:14:44.487Z,9.30
2023-01-03T15:17:31.567Z,9.50
2023-01-03T15:20:22.835Z,10.13
2023-01-03T15:23:27.693Z,10.97
2023-01-03T15:26:21.881Z,11.20
2023-01-03T15:29:16.703Z,10.60
2023-01-03T15:32:10.696Z,11.10
2023-01-03T15:34:57.703Z,11.23
2023-01-03T15:37:44.697Z,9.47
2023-01-03T15:40:31.964Z,9.80
2023-01-03T15:43:24.024Z,11.77
2023-01-03T15:46:19.086Z,10.03
2023-01-03T15:49:07.550Z,16.73
2023-01-03T15:51:54.710Z,9.77
2023-01-03T15:54:43.387Z,9.70
2023-01-03T15:57:31.191Z,8.97
2023-01-03T16:00:23.513Z,11.40
2023-01-03T16:03:16.638Z,12.47
2023-01-03T16:06:04.286Z,9.43
2023-01-03T16:08:51.267Z,8.30
2023-01-03T16:11:39.160Z,9.27
2023-01-03T16:14:36.412Z,10.50
2023-01-03T16:17:28.289Z,7.43
2023-01-03T16:20:17.868Z,10.00
2023-01-03T16:23:05.532Z,9.03
2023-01-03T16:25:53.003Z,13.23
2023-01-03T16:28:40.026Z,10.33
2023-01-03T16:31:31.571Z,11.80
2023-01-03T16:34:25.372Z,13.23
2023-01-03T16:37:16.057Z,14.47
2023-01-03T16:40:03.305Z,10.90
2023-01-03T16:42:50.295Z,12.67
2023-01-03T16:45:46.963Z,9.73
2023-01-03T16:48:39.090Z,6.73
2023-01-03T16:51:29.631Z,10.33
2023-01-03T16:54:18.344Z,9.50
2023-01-03T16:57:05.333Z,7.63
2023-01-03T16:59:52.322Z,6.37
2023-01-03T17:02:39.385Z,7.97
2023-01-03T17:05:28.041Z,7.23
2023-01-03T17:08:16.856Z,9.60
2023-01-03T17:11:05.333Z,7.40
2023-01-03T17:13:59.165Z,6.10
2023-01-03T17:16:47.198Z,7.07
2023-01-03T17:22:51.434Z,9.47
2023-01-03T17:25:40.239Z,9.20
2023-01-03T17:28:27.205Z,8.13
2023-01-03T17:31:23.105Z,7.67
2023-01-03T17:34:23.982Z,5.47
2023-01-03T17:37:17.035Z,8.00
2023-01-03T17:40:04.284Z,10.20
2023-01-03T17:42:54.761Z,11.07
2023-01-03T17:46:00.414Z,7.53
2023-01-03T17:49:05.960Z,7.87
2023-01-03T17:52:07.952Z,6.07
2023-01-03T17:54:55.207Z,6.77
2023-01-03T17:57:42.301Z,6.40
2023-01-03T18:00:30.746Z,11.57
2023-01-03T18:03:17.855Z,6.77
2023-01-03T18:06:15.894Z,6.40
2023-01-03T18:09:04.955Z,5.40
2023-01-03T18:11:55.716Z,7.73
2023-01-03T18:14:42.769Z,6.30
2023-01-03T18:17:32.979Z,6.90
2023-01-03T18:20:20.785Z,16.27
2023-01-03T18:23:27.138Z,17.27
2023-01-03T18:26:16.424Z,9.57
2023-01-03T18:29:04.837Z,8.50
2023-01-03T18:31:52.024Z,6.77
2023-01-03T18:34:39.099Z,7.40
2023-01-03T18:37:32.466Z,6.47
2023-01-03T18:40:23.318Z,6.20
2023-01-03T18:43:13.800Z,6.53
2023-01-03T18:46:01.233Z,6.87
2023-01-03T18:48:48.515Z,4.37
2023-01-03T18:51:35.450Z,5.40
2023-01-03T18:54:22.502Z,6.37
2023-01-03T18:57:12.370Z,9.53
2023-01-03T18:59:59.310Z,6.20
2023-01-03T19:02:47.106Z,5.87
2023-01-03T19:05:34.601Z,5.50
2023-01-03T19:08:24.696Z,5.90
2023-01-03T19:11:17.499Z,9.07
2023-01-03T19:14:04.690Z,9.03
2023-01-03T19:16:51.873Z,4.93
2023-01-03T19:19:39.433Z,8.70
2023-01-03T19:22:29.330Z,9.47
2023-01-03T19:25:28.745Z,7.57
2023-01-03T19:28:23.119Z,8.30
2023-01-03T19:31:12.537Z,7.03
2023-01-03T19:33:59.787Z,10.70
2023-01-03T19:36:47.429Z,6.93
2023-01-03T19:39:37.660Z,5.50
2023-01-03T19:42:43.741Z,7.77
2023-01-03T19:45:36.554Z,8.23
2023-01-03T19:48:26.486Z,10.47
2023-01-03T19:51:13.597Z,15.47
2023-01-03T19:54:00.998Z,8.83
2023-01-03T19:56:50.924Z,7.50
2023-01-03T19:59:38.499Z,11.13
2023-01-03T20:02:26.117Z,8.67
2023-01-03T20:05:25.761Z,9.43
2023-01-03T20:08:12.902Z,6.50
2023-01-03T20:10:59.919Z,9.87
2023-01-03T20:13:47.439Z,8.30
2023-01-03T20:16:34.415Z,6.03
2023-01-03T20:19:21.803Z,5.73
2023-01-03T20:22:24.373Z,7.97
2023-01-03T20:25:24.457Z,7.40
2023-01-03T20:28:20.838Z,7.10
2023-01-03T20:31:08.639Z,6.83
2023-01-03T20:33:55.679Z,4.60
2023-01-03T20:36:45.849Z,3.80
2023-01-03T20:39:35.295Z,5.37
2023-01-03T20:42:23.042Z,6.70
2023-01-03T20:45:11.498Z,5.40
2023-01-03T20:47:59.624Z,5.20
2023-01-03T20:50:46.966Z,5.37
2023-01-03T20:53:33.880Z,5.13
2023-01-03T20:56:21.079Z,3.50
2023-01-03T20:59:16.086Z,4.97
2023-01-03T21:02:03.255Z,3.87
2023-01-03T21:04:50.919Z,3.13
2023-01-03T21:07:56.369Z,6.80
2023-01-03T21:10:44.264Z,4.13
2023-01-03T21:13:31.233Z,6.20
2023-01-03T21:16:37.123Z,3.70
2023-01-03T21:19:24.746Z,3.80
2023-01-03T21:22:19.488Z,4.50
2023-01-03T21:25:08.770Z,4.90
2023-01-03T21:27:55.806Z,6.57
2023-01-03T21:30:43.399Z,4.00
2023-01-03T21:33:30.363Z,3.60
2023-01-03T21:36:37.609Z,4.00
2023-01-03T21:39:24.514Z,4.07
2023-01-03T21:42:32.411Z,4.13
2023-01-03T21:45:19.557Z,2.90
2023-01-03T21:48:10.230Z,4.00
2023-01-03T21:50:57.221Z,5.83
2023-01-03T21:53:44.552Z,3.40
2023-01-03T21:56:31.487Z,3.60
2023-01-03T21:59:18.595Z,4.70
2023-01-03T22:02:24.287Z,4.63
2023-01-03T22:05:11.320Z,5.50
2023-01-03T22:07:59.091Z,4.90
2023-01-03T22:10:48.634Z,3.30
2023-01-03T22:13:36.734Z,7.30
2023-01-03T22:16:24.170Z,2.17
2023-01-03T22:19:11.117Z,4.93
2023-01-03T22:21:58.162Z,2.97
2023-01-03T22:24:45.086Z,4.43
2023-01-03T22:27:32.045Z,7.60
2023-01-03T22:30:20.472Z,4.70
2023-01-03T22:33:07.510Z,4.03
2023-01-03T22:35:54.434Z,3.93
2023-01-03T22:38:42.163Z,6.77
2023-01-03T22:41:29.103Z,7.60
2023-01-03T22:44:16.163Z,5.63
2023-01-03T22:47:04.242Z,6.27
2023-01-03T22:49:51.264Z,6.13
2023-01-03T22:52:39.771Z,6.37
2023-01-03T22:55:31.868Z,1.77
2023-01-03T22:58:19.196Z,4.13
2023-01-03T23:01:08.467Z,5.67
2023-01-03T23:04:00.258Z,3.70
2023-01-03T23:06:47.433Z,6.03
2023-01-03T23:09:34.478Z,3.77
2023-01-03T23:12:39.919Z,4.10
2023-01-03T23:15:29.707Z,3.77
2023-01-03T23:18:16.601Z,5.33
2023-01-03T23:21:05.383Z,5.33
2023-01-03T23:23:52.685Z,6.40
2023-01-03T23:26:39.729Z,5.50
2023-01-03T23:29:26.709Z,4.43
2023-01-03T23:32:13.707Z,6.33
2023-01-03T23:35:00.686Z,6.77
2023-01-03T23:37:47.884Z,4.93
2023-01-03T23:40:34.919Z,5.83
2023-01-03T23:43:21.876Z,4.57
2023-01-03T23:46:15.311Z,3.50
2023-01-03T23:49:02.325Z,9.40
2023-01-03T23:51:49.293Z,5.67
2023-01-03T23:54:36.238Z,3.90
2023-01-03T23:57:23.220Z,5.60
